Time;durP1;ratioP1;P1;durP2;ratioP2;P2;SDS_P1;SDS_P2;PMS_P1;PMS_P2;Temp;Humidity;BMP_temperature;BMP_pressure;BME280_temperature;BME280_humidity;BME280_pressure;Samples;Min_cycle;Max_cycle;Signal;HPM_P1;HPM_P2
2021/04/21 15:15:25;;;;;;;;;;;;;;;22.12;37.03;100880.13;5121441;27;10160;-46
2021/04/21 15:17:53;;;;;;;;;;;;;;;22.34;36.34;100884.09;5097619;28;10558;-53
2021/04/21 15:20:19;;;;;;;;;;;;;;;22.50;35.97;100887.38;5093711;28;785;-54
2021/04/21 15:22:44;;;;;;;;;;;;;;;21.59;37.82;100888.88;5093801;28;824;-57
2021/04/21 15:25:11;;;;;;;;;;;;;;;21.36;38.59;100891.47;5089152;28;68333;-46
2021/04/21 15:27:36;;;;;;;;;;;;;;;20.95;39.38;100892.97;5093711;28;816;-47
2021/04/21 15:30:02;;;;;;;;;;;;;;;21.68;37.98;100898.13;5093705;28;771;-54
2021/04/21 15:32:30;;;;;;;;;;;;;;;22.03;37.13;100893.03;5091514;28;950;-49
2021/04/21 15:34:55;;;;;;;;;;;;;;;22.19;36.77;100894.38;5092521;28;1913;-52
2021/04/21 15:37:21;;;;;;;;;;;;;;;22.45;36.30;100890.25;5092457;28;801;-48
2021/04/21 15:39:50;;;;;;;;;;;;;;;22.46;36.21;100889.94;5093288;28;921;-51
2021/04/21 15:42:16;;;;;;;;;;;;;;;21.31;38.51;100894.34;5093530;28;775;-60
2021/04/21 15:44:41;;;;;;;;;;;;;;;21.25;38.96;100890.03;5093674;28;811;-58
2021/04/21 15:47:07;;;;;;;;;;;;;;;20.98;39.21;100897.09;5092649;28;1645;-59
2021/04/21 15:49:32;;;;;;;;;;;;;;;21.39;38.69;100893.63;5092955;28;736;-55
2021/04/21 15:51:58;;;;;;;;;;;;;;;21.68;37.92;100898.13;5091942;28;1057;-57
2021/04/21 15:54:23;;;;;;;;;;;;;;;21.97;37.21;100906.16;5092973;28;1988;-59
2021/04/21 15:56:49;;;;;;;;;;;;;;;21.96;37.24;100906.47;5093056;28;783;-56
2021/04/21 15:59:17;;;;;;;;;;;;;;;22.12;36.78;100915.28;5093029;28;748;-56
2021/04/21 16:01:42;;;;;;;;;;;;;;;22.26;36.72;100915.28;5090615;28;1055;-57
2021/04/21 16:04:08;;;;;;;;;;;;;;;22.18;36.81;100917.63;5093032;28;854;-55
2021/04/21 16:06:33;;;;;;;;;;;;;;;22.10;37.01;100921.13;5093242;28;782;-58
2021/04/21 16:08:59;;;;;;;;;;;;;;;22.16;36.82;100919.06;5092702;28;791;-57
2021/04/21 16:11:24;;;;;;;;;;;;;;;22.23;36.83;100930.56;5090692;28;1122;-56
2021/04/21 16:13:50;;;;;;;;;;;;;;;21.74;37.90;100932.91;5079498;28;1914;-56
2021/04/21 16:16:15;;;;;;;;;;;;;;;22.13;36.94;100934.38;5094901;28;955;-58
2021/04/21 16:18:40;;;;;;;;;;;;;;;22.20;36.66;100937.56;5133938;28;735;-57
2021/04/21 16:21:06;;;;;;;;;;;;;;;22.43;36.38;100940.44;5133478;28;811;-57
2021/04/21 16:23:31;;;;;;;;;;;;;;;22.26;36.74;100942.97;5133725;28;783;-49
2021/04/21 16:25:57;;;;;;;;;;;;;;;22.34;36.70;100945.91;5124545;28;803;-50
2021/04/21 16:28:22;;;;;;;;;;;;;;;22.36;36.56;100942.81;5119819;28;785;-58
2021/04/21 16:30:48;;;;;;;;;;;;;;;22.29;36.70;100945.16;5119779;28;771;-46
2021/04/21 16:33:14;;;;;;;;;;;;;;;22.16;37.04;100958.69;5119155;28;1964;-58
2021/04/21 16:35:41;;;;;;;;;;;;;;;22.00;37.38;100965.66;5119328;28;795;-46
2021/04/21 16:38:07;;;;;;;;;;;;;;;21.48;38.53;100960.19;5101120;28;1236;-53
2021/04/21 16:40:32;;;;;;;;;;;;;;;21.44;38.49;100967.44;5119819;28;767;-45
2021/04/21 16:42:58;;;;;;;;;;;;;;;20.87;39.72;100964.72;5119251;28;775;-46
2021/04/21 16:45:23;;;;;;;;;;;;;;;21.10;39.41;100972.09;5119603;28;791;-64
2021/04/21 16:47:49;;;;;;;;;;;;;;;21.18;39.05;100967.81;5092975;28;875;-60
2021/04/21 16:50:15;;;;;;;;;;;;;;;21.30;38.95;100976.50;5098884;28;763;-64
2021/04/21 16:52:44;;;;;;;;;;;;;;;21.27;39.03;100977.09;5098921;28;803;-69
2021/04/21 16:55:10;;;;;;;;;;;;;;;21.57;38.26;100983.28;5080475;28;1918;-65
2021/04/21 16:57:35;;;;;;;;;;;;;;;21.60;38.37;100979.09;5098411;28;748;-60
2021/04/21 17:00:01;;;;;;;;;;;;;;;21.88;37.50;100978.03;5080377;28;902;-46
2021/04/21 17:02:27;;;;;;;;;;;;;;;22.00;37.37;100977.53;5098203;28;954;-46
2021/04/21 17:04:53;;;;;;;;;;;;;;;22.17;36.79;100988.00;5098576;28;764;-59
2021/04/21 17:07:18;;;;;;;;;;;;;;;22.05;37.28;100985.75;5098832;28;771;-63
2021/04/21 17:09:44;;;;;;;;;;;;;;;22.22;36.86;100990.69;5098355;28;842;-49
2021/04/21 17:12:09;;;;;;;;;;;;;;;22.17;37.04;100993.53;5089964;28;1178;-49
2021/04/21 17:14:35;;;;;;;;;;;;;;;22.19;36.81;100991.31;5078103;28;1918;-48
2021/04/21 17:17:01;;;;;;;;;;;;;;;22.21;36.90;100988.22;5085312;28;951;-61
2021/04/21 17:19:26;;;;;;;;;;;;;;;22.26;36.95;100990.91;5080660;28;779;-62
2021/04/21 17:21:53;;;;;;;;;;;;;;;22.21;36.99;100994.56;5098325;28;839;-62
2021/04/21 17:24:19;;;;;;;;;;;;;;;22.33;36.83;101001.56;5098079;28;814;-61
2021/04/21 17:26:44;;;;;;;;;;;;;;;22.15;37.28;100998.59;5098181;28;819;-49
2021/04/21 17:29:10;;;;;;;;;;;;;;;22.32;36.69;101005.47;5098159;28;854;-62
2021/04/21 17:31:36;;;;;;;;;;;;;;;22.12;37.22;100996.44;5097787;28;1014;-62
2021/04/21 17:34:02;;;;;;;;;;;;;;;21.67;38.05;101004.41;5098055;28;1977;-58
2021/04/21 17:36:27;;;;;;;;;;;;;;;21.37;38.89;101012.06;5097428;28;842;-53
2021/04/21 17:38:52;;;;;;;;;;;;;;;21.53;38.69;101013.50;5097338;28;787;-61
2021/04/21 17:41:18;;;;;;;;;;;;;;;21.78;38.22;101019.72;5097982;28;760;-48
2021/04/21 17:43:44;;;;;;;;;;;;;;;21.69;38.33;101025.13;5079590;28;820;-60
2021/04/21 17:46:09;;;;;;;;;;;;;;;21.85;38.06;101030.41;5097393;28;1610;-61
2021/04/21 17:48:37;;;;;;;;;;;;;;;22.15;37.22;101042.09;5097682;28;1006;-61
2021/04/21 17:51:03;;;;;;;;;;;;;;;21.83;37.87;101043.75;5097623;28;759;-61
2021/04/21 17:53:29;;;;;;;;;;;;;;;21.61;38.39;101045.19;5097563;28;1979;-50
2021/04/21 17:55:54;;;;;;;;;;;;;;;21.31;39.02;101052.00;5097559;28;751;-49
2021/04/21 17:58:23;;;;;;;;;;;;;;;21.31;38.94;101049.25;5097449;28;811;-62
2021/04/21 18:00:48;;;;;;;;;;;;;;;21.27;38.98;101057.31;5097635;28;755;-61
2021/04/21 18:03:14;;;;;;;;;;;;;;;21.68;38.04;101065.00;5097161;28;1002;-61
2021/04/21 18:05:39;;;;;;;;;;;;;;;21.56;38.42;101070.19;5097178;28;819;-61
2021/04/21 18:08:05;;;;;;;;;;;;;;;21.38;38.97;101074.59;5097767;28;814;-49
2021/04/21 18:10:30;;;;;;;;;;;;;;;21.00;39.37;101078.13;5097412;28;787;-62
2021/04/21 18:12:56;;;;;;;;;;;;;;;20.87;39.86;101083.56;5082079;28;1103;-48
2021/04/21 18:15:23;;;;;;;;;;;;;;;21.37;39.05;101078.47;5076875;28;1910;-58
2021/04/21 18:17:53;;;;;;;;;;;;;;;21.25;39.21;101089.13;5087748;28;1003;-51
2021/04/21 18:20:18;;;;;;;;;;;;;;;21.14;39.43;101089.28;5098612;28;809;-61
2021/04/21 18:22:43;;;;;;;;;;;;;;;21.29;39.17;101090.19;5117594;28;850;-62
2021/04/21 18:25:09;;;;;;;;;;;;;;;21.52;38.45;101086.56;5117383;28;527;-61
2021/04/21 18:27:35;;;;;;;;;;;;;;;20.99;39.48;101086.72;5117232;28;823;-61
2021/04/21 18:30:00;;;;;;;;;;;;;;;21.05;39.35;101096.59;5117507;28;787;-61
2021/04/21 18:32:26;;;;;;;;;;;;;;;21.46;38.87;101096.03;5116978;28;1001;-47
2021/04/21 18:34:53;;;;;;;;;;;;;;;21.37;39.00;101093.09;5117163;28;1909;-63
2021/04/21 18:37:18;;;;;;;;;;;;;;;21.24;39.04;101087.47;5117535;28;772;-51
2021/04/21 18:39:44;;;;;;;;;;;;;;;21.26;39.07;101088.03;5117129;28;810;-61
2021/04/21 18:42:09;;;;;;;;;;;;;;;21.46;38.79;101087.75;5117186;28;768;-61
2021/04/21 18:44:35;;;;;;;;;;;;;;;21.39;38.92;101095.56;5117206;28;882;-60
2021/04/21 18:47:01;;;;;;;;;;;;;;;21.13;39.13;101090.41;5102988;28;1643;-46
2021/04/21 18:49:26;;;;;;;;;;;;;;;21.47;38.67;101086.59;5096549;28;831;-52
2021/04/21 18:51:52;;;;;;;;;;;;;;;21.62;38.03;101079.25;5097277;28;779;-63
2021/04/21 18:54:17;;;;;;;;;;;;;;;21.20;39.14;101096.38;5096668;28;1973;-45
2021/04/21 18:56:42;;;;;;;;;;;;;;;21.02;39.56;101086.13;5096563;28;744;-58
2021/04/21 18:59:09;;;;;;;;;;;;;;;21.27;39.21;101084.97;5096656;28;804;-52
2021/04/21 19:01:36;;;;;;;;;;;;;;;21.49;38.50;101092.66;5096060;28;1021;-48
2021/04/21 19:04:02;;;;;;;;;;;;;;;21.17;39.14;101093.41;5096880;28;810;-47
2021/04/21 19:06:27;;;;;;;;;;;;;;;21.06;39.54;101092.72;5096383;28;866;-47
2021/04/21 19:08:53;;;;;;;;;;;;;;;21.32;38.78;101084.06;5096670;28;858;-60
2021/04/21 19:11:18;;;;;;;;;;;;;;;21.42;38.65;101083.94;5095145;28;1213;-46
2021/04/21 19:13:43;;;;;;;;;;;;;;;21.22;39.23;101092.50;5076011;28;1918;-50
2021/04/21 19:16:09;;;;;;;;;;;;;;;21.59;38.22;101096.41;5077203;28;1022;-48
2021/04/21 19:18:38;;;;;;;;;;;;;;;21.33;38.72;101086.53;5116569;28;1017;-45
2021/04/21 19:21:04;;;;;;;;;;;;;;;21.17;39.16;101083.16;5116702;28;767;-47
2021/04/21 19:23:29;;;;;;;;;;;;;;;21.33;38.81;101097.59;5098152;28;800;-46
2021/04/21 19:25:55;;;;;;;;;;;;;;;21.31;38.79;101091.53;5098130;28;911;-47
2021/04/21 19:28:20;;;;;;;;;;;;;;;21.35;38.93;101100.09;5116513;28;799;-63
2021/04/21 19:30:46;;;;;;;;;;;;;;;21.31;38.67;101102.59;5116801;28;814;-46
2021/04/21 19:33:11;;;;;;;;;;;;;;;21.17;39.09;101101.72;5116035;28;1975;-47
2021/04/21 19:35:37;;;;;;;;;;;;;;;21.36;38.97;101112.78;5116351;28;798;-46
2021/04/21 19:38:03;;;;;;;;;;;;;;;21.70;38.22;101103.47;5116650;28;802;-63
2021/04/21 19:40:31;;;;;;;;;;;;;;;21.71;38.26;101105.09;5116481;28;787;-52
2021/04/21 19:42:58;;;;;;;;;;;;;;;21.41;38.65;101104.41;5116443;28;791;-53
2021/04/21 19:45:23;;;;;;;;;;;;;;;21.34;38.75;101103.97;5116692;28;739;-47
2021/04/21 19:47:49;;;;;;;;;;;;;;;21.09;39.52;101102.38;5095471;28;1784;-60
2021/04/21 19:50:14;;;;;;;;;;;;;;;21.45;38.68;101102.69;5096047;28;842;-63
2021/04/21 19:52:40;;;;;;;;;;;;;;;21.42;38.69;101102.44;5096720;28;720;-62
2021/04/21 19:55:06;;;;;;;;;;;;;;;21.06;39.53;101103.78;5095834;28;1981;-46
2021/04/21 19:57:32;;;;;;;;;;;;;;;20.70;40.53;101111.69;5095990;28;843;-68
2021/04/21 19:59:57;;;;;;;;;;;;;;;21.07;39.82;101108.19;5096281;28;840;-50
2021/04/21 20:02:23;;;;;;;;;;;;;;;21.52;38.88;101108.69;5099136;28;1064;-46
2021/04/21 20:04:48;;;;;;;;;;;;;;;21.52;38.73;101105.13;5099858;28;846;-53
2021/04/21 20:07:14;;;;;;;;;;;;;;;21.73;38.23;101100.09;5099681;28;755;-60
2021/04/21 20:09:42;;;;;;;;;;;;;;;21.51;38.63;101107.00;5099827;28;854;-64
2021/04/21 20:12:08;;;;;;;;;;;;;;;20.82;40.23;101107.38;5091354;28;1206;-53
2021/04/21 20:14:33;;;;;;;;;;;;;;;21.00;39.98;101107.72;5079316;28;1898;-68
2021/04/21 20:16:59;;;;;;;;;;;;;;;21.36;39.08;101112.78;5093893;28;971;-63
2021/04/21 20:19:24;;;;;;;;;;;;;;;21.39;39.11;101114.13;5119991;28;755;-45
2021/04/21 20:21:50;;;;;;;;;;;;;;;21.35;39.05;101111.16;5119902;28;775;-65
2021/04/21 20:24:16;;;;;;;;;;;;;;;21.49;38.72;101106.50;5101516;28;795;-67
2021/04/21 20:26:41;;;;;;;;;;;;;;;21.10;39.49;101110.34;5119723;28;748;-63
2021/04/21 20:29:06;;;;;;;;;;;;;;;21.11;39.66;101111.16;5119961;28;764;-66
2021/04/21 20:31:32;;;;;;;;;;;;;;;21.13;39.33;101104.22;5119349;28;1020;-63
2021/04/21 20:33:58;;;;;;;;;;;;;;;21.25;39.09;101114.03;5119639;28;1977;-45
2021/04/21 20:36:23;;;;;;;;;;;;;;;21.18;39.33;101118.00;5119350;28;831;-66
2021/04/21 20:38:48;;;;;;;;;;;;;;;21.44;38.81;101120.41;5119642;28;807;-57
2021/04/21 20:41:14;;;;;;;;;;;;;;;21.12;39.50;101124.69;5119609;28;740;-66
2021/04/21 20:43:39;;;;;;;;;;;;;;;21.31;39.14;101119.19;5119620;28;871;-65
2021/04/21 20:46:05;;;;;;;;;;;;;;;21.17;39.47;101116.34;5113724;28;1561;-65
2021/04/21 20:48:32;;;;;;;;;;;;;;;20.91;39.98;101124.13;5098745;28;947;-47
2021/04/21 20:50:57;;;;;;;;;;;;;;;21.05;39.78;101124.25;5098804;28;816;-46
2021/04/21 20:53:23;;;;;;;;;;;;;;;21.20;39.20;101121.28;5098913;28;1914;-67
2021/04/21 20:55:48;;;;;;;;;;;;;;;21.31;39.06;101123.91;5098651;28;803;-46
2021/04/21 20:58:14;;;;;;;;;;;;;;;21.25;39.18;101127.84;5098832;28;811;-46
2021/04/21 21:00:39;;;;;;;;;;;;;;;21.53;38.52;101120.56;5099092;28;803;-66
2021/04/21 21:03:05;;;;;;;;;;;;;;;21.23;39.24;101130.13;5098417;28;958;-67
2021/04/21 21:05:30;;;;;;;;;;;;;;;21.30;39.16;101131.38;5098583;28;748;-66
2021/04/21 21:07:55;;;;;;;;;;;;;;;21.35;39.01;101127.75;5098651;28;830;-47
2021/04/21 21:10:21;;;;;;;;;;;;;;;21.22;39.12;101126.50;5098420;28;763;-64
2021/04/21 21:12:47;;;;;;;;;;;;;;;21.07;39.30;101126.69;5084811;28;1178;-65
2021/04/21 21:15:14;;;;;;;;;;;;;;;21.52;38.72;101128.06;5078038;28;1918;-65
2021/04/21 21:17:39;;;;;;;;;;;;;;;21.22;39.22;101129.28;5090903;28;959;-68
2021/04/21 21:20:05;;;;;;;;;;;;;;;21.34;38.94;101134.38;5098629;28;813;-48
2021/04/21 21:22:30;;;;;;;;;;;;;;;21.50;38.39;101135.81;5098226;28;799;-66
2021/04/21 21:24:56;;;;;;;;;;;;;;;21.31;39.08;101132.22;5098225;28;827;-46
2021/04/21 21:27:25;;;;;;;;;;;;;;;21.24;39.29;101134.50;5098253;28;783;-66
2021/04/21 21:29:51;;;;;;;;;;;;;;;21.34;39.00;101137.97;5098055;28;832;-70
2021/04/21 21:32:17;;;;;;;;;;;;;;;21.26;39.27;101135.03;5097653;28;954;-46
2021/04/21 21:34:42;;;;;;;;;;;;;;;21.43;38.88;101134.53;5098304;28;1917;-47
2021/04/21 21:37:08;;;;;;;;;;;;;;;21.43;38.79;101135.34;5097759;28;739;-50
2021/04/21 21:39:33;;;;;;;;;;;;;;;21.22;39.12;101126.50;5098104;28;847;-65
2021/04/21 21:41:58;;;;;;;;;;;;;;;21.37;38.92;101136.56;5097953;28;804;-62
2021/04/21 21:44:24;;;;;;;;;;;;;;;21.27;39.15;101133.94;5097966;28;803;-64
2021/04/21 21:46:49;;;;;;;;;;;;;;;21.11;39.32;101133.28;5097323;28;1586;-65
2021/04/21 21:49:15;;;;;;;;;;;;;;;21.16;39.20;101130.47;5098352;28;855;-65
2021/04/21 21:51:40;;;;;;;;;;;;;;;21.37;38.87;101131.03;5097600;28;724;-66
2021/04/21 21:54:06;;;;;;;;;;;;;;;21.13;39.36;101120.81;5097699;28;1914;-47
2021/04/21 21:56:32;;;;;;;;;;;;;;;21.15;39.12;101129.66;5079549;28;1414;-69
2021/04/21 21:58:57;;;;;;;;;;;;;;;21.14;39.13;101133.53;5097412;28;899;-48
2021/04/21 22:01:22;;;;;;;;;;;;;;;20.99;39.87;101130.97;5097118;28;954;-65
2021/04/21 22:03:48;;;;;;;;;;;;;;;21.28;38.92;101138.31;5097837;28;797;-48
2021/04/21 22:06:14;;;;;;;;;;;;;;;21.16;39.14;101130.47;5097132;28;756;-46
2021/04/21 22:08:41;;;;;;;;;;;;;;;21.07;39.34;101123.94;5097501;28;831;-63
2021/04/21 22:11:07;;;;;;;;;;;;;;;21.02;39.65;101139.47;5097481;28;740;-47
2021/04/21 22:13:32;;;;;;;;;;;;;;;21.11;39.43;101133.28;5076838;28;2000;-49
2021/04/21 22:15:58;;;;;;;;;;;;;;;21.26;39.22;101140.56;5076983;28;804;-45
2021/04/21 22:18:24;;;;;;;;;;;;;;;21.35;38.81;101138.81;5115497;28;1002;-67
2021/04/21 22:20:49;;;;;;;;;;;;;;;21.14;39.11;101136.31;5117309;28;760;-64
2021/04/21 22:23:15;;;;;;;;;;;;;;;21.20;39.31;101143.41;5117134;28;811;-65
2021/04/21 22:25:40;;;;;;;;;;;;;;;21.09;39.36;101125.28;5117778;28;776;-64
2021/04/21 22:28:07;;;;;;;;;;;;;;;21.24;39.18;101138.09;5098783;28;816;-62
2021/04/21 22:30:32;;;;;;;;;;;;;;;21.06;39.51;101139.72;5117471;28;799;-49
2021/04/21 22:32:58;;;;;;;;;;;;;;;20.91;39.90;101134.38;5116916;28;1005;-47
2021/04/21 22:35:24;;;;;;;;;;;;;;;20.91;39.75;101126.88;5117125;28;1895;-46
2021/04/21 22:37:49;;;;;;;;;;;;;;;20.99;39.62;101133.72;5099221;28;815;-62
2021/04/21 22:40:15;;;;;;;;;;;;;;;21.06;39.40;101123.13;5117524;28;798;-64
2021/04/21 22:42:40;;;;;;;;;;;;;;;20.90;39.74;101129.94;5099048;28;732;-64
2021/04/21 22:45:07;;;;;;;;;;;;;;;20.67;40.42;101136.00;5099166;28;666;-48
2021/04/21 22:47:32;;;;;;;;;;;;;;;21.05;39.47;101129.78;5098661;28;1672;-65
2021/04/21 22:49:57;;;;;;;;;;;;;;;20.93;39.85;101126.59;5096768;28;747;-45
2021/04/21 22:52:23;;;;;;;;;;;;;;;20.90;39.80;101128.03;5097091;28;786;-46
2021/04/21 22:54:49;;;;;;;;;;;;;;;21.01;39.69;101126.78;5096500;28;1917;-46
2021/04/21 22:57:16;;;;;;;;;;;;;;;20.99;39.50;101128.19;5096536;28;846;-47
2021/04/21 22:59:42;;;;;;;;;;;;;;;20.83;40.07;101122.84;5096681;28;755;-64
2021/04/21 23:02:07;;;;;;;;;;;;;;;20.85;39.73;101137.19;5078379;28;962;-50
2021/04/21 23:04:33;;;;;;;;;;;;;;;20.97;39.81;101127.66;5096573;28;847;-65
2021/04/21 23:06:58;;;;;;;;;;;;;;;21.11;39.19;101127.75;5096801;28;772;-46
2021/04/21 23:09:24;;;;;;;;;;;;;;;21.14;39.33;101128.00;5096264;28;859;-46
2021/04/21 23:11:49;;;;;;;;;;;;;;;20.96;39.53;101120.50;5090858;28;1202;-64
2021/04/21 23:14:14;;;;;;;;;;;;;;;20.98;39.44;101127.34;5076047;28;1917;-67
2021/04/21 23:16:40;;;;;;;;;;;;;;;20.85;39.88;101126.13;5085353;28;1018;-46
2021/04/21 23:19:05;;;;;;;;;;;;;;;20.74;40.03;101124.59;5116882;28;763;-51
2021/04/21 23:21:31;;;;;;;;;;;;;;;20.78;40.12;101125.66;5116751;28;759;-58
2021/04/21 23:23:56;;;;;;;;;;;;;;;20.60;40.09;101129.16;5117021;28;771;-46
2021/04/21 23:26:22;;;;;;;;;;;;;;;20.82;40.04;101121.19;5116628;28;752;-65
2021/04/21 23:28:47;;;;;;;;;;;;;;;20.79;40.01;101127.31;5116604;28;747;-62
2021/04/21 23:31:13;;;;;;;;;;;;;;;20.92;39.61;101130.50;5116121;28;1553;-65
2021/04/21 23:33:38;;;;;;;;;;;;;;;20.96;39.68;101134.31;5116523;28;1909;-48
2021/04/21 23:36:04;;;;;;;;;;;;;;;20.95;39.60;101124.38;5118792;28;799;-46
2021/04/21 23:38:30;;;;;;;;;;;;;;;20.92;39.71;101124.97;5120721;28;807;-64
2021/04/21 23:40:55;;;;;;;;;;;;;;;20.67;40.04;101135.16;5121008;28;818;-47
2021/04/21 23:43:20;;;;;;;;;;;;;;;20.47;40.64;101131.47;5120827;28;775;-64
2021/04/21 23:45:46;;;;;;;;;;;;;;;20.82;40.01;101137.78;5117318;28;1569;-64
2021/04/21 23:48:11;;;;;;;;;;;;;;;20.78;39.90;101131.19;5099911;28;1041;-64
2021/04/21 23:50:37;;;;;;;;;;;;;;;20.60;40.43;101135.50;5099940;28;747;-65
2021/04/21 23:53:02;;;;;;;;;;;;;;;20.82;40.02;101128.69;5100176;28;802;-64
2021/04/21 23:55:28;;;;;;;;;;;;;;;20.48;40.63;101127.63;5099858;28;1910;-48
2021/04/21 23:57:53;;;;;;;;;;;;;;;20.77;40.14;101142.53;5081325;28;865;-63
